sensor_id;sensor_type;location;lat;lon;timestamp;temperature;humidity
31675;DHT22;18276;45.520;11.018;2022-11-15T00:01:27;9.00;99.90
31675;DHT22;18276;45.520;11.018;2022-11-15T00:04:13;9.10;99.90
31675;DHT22;18276;45.520;11.018;2022-11-15T00:06:58;9.10;99.90
31675;DHT22;18276;45.520;11.018;2022-11-15T00:09:44;9.10;99.90
31675;DHT22;18276;45.520;11.018;2022-11-15T00:12:30;9.10;99.90
31675;DHT22;18276;45.520;11.018;2022-11-15T00:15:16;9.10;99.90
31675;DHT22;18276;45.520;11.018;2022-11-15T00:18:03;9.10;99.90
31675;DHT22;18276;45.520;11.018;2022-11-15T00:20:48;9.10;99.90
31675;DHT22;18276;45.520;11.018;2022-11-15T00:23:34;9.00;99.90
31675;DHT22;18276;45.520;11.018;2022-11-15T00:26:19;9.10;99.90
31675;DHT22;18276;45.520;11.018;2022-11-15T00:29:05;9.20;99.90
31675;DHT22;18276;45.520;11.018;2022-11-15T00:31:50;9.20;99.90
31675;DHT22;18276;45.520;11.018;2022-11-15T00:34:37;9.20;99.90
31675;DHT22;18276;45.520;11.018;2022-11-15T00:37:22;9.20;99.90
31675;DHT22;18276;45.520;11.018;2022-11-15T00:40:11;9.10;99.90
31675;DHT22;18276;45.520;11.018;2022-11-15T00:42:58;9.00;99.90
31675;DHT22;18276;45.520;11.018;2022-11-15T00:45:43;8.90;99.90
31675;DHT22;18276;45.520;11.018;2022-11-15T00:48:29;8.80;99.90
31675;DHT22;18276;45.520;11.018;2022-11-15T00:51:15;8.70;99.90
31675;DHT22;18276;45.520;11.018;2022-11-15T00:54:00;8.70;99.90
31675;DHT22;18276;45.520;11.018;2022-11-15T00:56:46;8.70;99.90
31675;DHT22;18276;45.520;11.018;2022-11-15T00:59:31;8.70;99.90
31675;DHT22;18276;45.520;11.018;2022-11-15T01:02:17;8.70;99.90
31675;DHT22;18276;45.520;11.018;2022-11-15T01:05:03;8.70;99.90
31675;DHT22;18276;45.520;11.018;2022-11-15T01:07:55;8.60;99.90
31675;DHT22;18276;45.520;11.018;2022-11-15T01:10:41;8.60;99.90
31675;DHT22;18276;45.520;11.018;2022-11-15T01:13:27;8.50;99.90
31675;DHT22;18276;45.520;11.018;2022-11-15T01:16:16;8.60;99.90
31675;DHT22;18276;45.520;11.018;2022-11-15T01:19:04;8.60;99.90
31675;DHT22;18276;45.520;11.018;2022-11-15T01:21:51;8.60;99.90
31675;DHT22;18276;45.520;11.018;2022-11-15T01:24:36;8.70;99.90
31675;DHT22;18276;45.520;11.018;2022-11-15T01:27:22;8.70;99.90
31675;DHT22;18276;45.520;11.018;2022-11-15T01:30:08;8.70;99.90
31675;DHT22;18276;45.520;11.018;2022-11-15T01:32:53;8.70;99.90
31675;DHT22;18276;45.520;11.018;2022-11-15T01:35:39;8.70;99.90
31675;DHT22;18276;45.520;11.018;2022-11-15T01:38:25;8.70;99.90
31675;DHT22;18276;45.520;11.018;2022-11-15T01:41:19;8.70;99.90
31675;DHT22;18276;45.520;11.018;2022-11-15T01:44:43;8.60;99.90
31675;DHT22;18276;45.520;11.018;2022-11-15T01:47:32;8.60;99.90
31675;DHT22;18276;45.520;11.018;2022-11-15T01:50:24;8.50;99.90
31675;DHT22;18276;45.520;11.018;2022-11-15T01:53:10;8.50;99.90
31675;DHT22;18276;45.520;11.018;2022-11-15T01:55:56;8.50;99.90
31675;DHT22;18276;45.520;11.018;2022-11-15T01:58:43;8.50;99.90
31675;DHT22;18276;45.520;11.018;2022-11-15T02:01:32;8.50;99.90
31675;DHT22;18276;45.520;11.018;2022-11-15T02:04:25;8.50;99.90
31675;DHT22;18276;45.520;11.018;2022-11-15T02:07:18;8.50;99.90
31675;DHT22;18276;45.520;11.018;2022-11-15T02:10:09;8.40;99.90
31675;DHT22;18276;45.520;11.018;2022-11-15T02:12:56;8.40;99.90
31675;DHT22;18276;45.520;11.018;2022-11-15T02:22:19;8.30;99.90
31675;DHT22;18276;45.520;11.018;2022-11-15T02:25:41;8.30;99.90
31675;DHT22;18276;45.520;11.018;2022-11-15T02:46:54;8.50;99.90
31675;DHT22;18276;45.520;11.018;2022-11-15T02:50:07;8.50;99.90
31675;DHT22;18276;45.520;11.018;2022-11-15T02:52:54;8.40;99.90
31675;DHT22;18276;45.520;11.018;2022-11-15T02:55:48;8.40;99.90
31675;DHT22;18276;45.520;11.018;2022-11-15T03:08:18;8.20;99.90
31675;DHT22;18276;45.520;11.018;2022-11-15T03:11:17;8.10;99.90
31675;DHT22;18276;45.520;11.018;2022-11-15T03:14:18;8.10;99.90
31675;DHT22;18276;45.520;11.018;2022-11-15T03:17:25;8.00;99.90
31675;DHT22;18276;45.520;11.018;2022-11-15T03:20:14;8.10;99.90
31675;DHT22;18276;45.520;11.018;2022-11-15T03:23:05;8.10;99.90
31675;DHT22;18276;45.520;11.018;2022-11-15T03:25:52;8.10;99.90
31675;DHT22;18276;45.520;11.018;2022-11-15T03:29:08;8.10;99.90
31675;DHT22;18276;45.520;11.018;2022-11-15T03:31:58;8.20;99.90
31675;DHT22;18276;45.520;11.018;2022-11-15T03:34:53;8.20;99.90
31675;DHT22;18276;45.520;11.018;2022-11-15T03:38:19;8.10;99.90
31675;DHT22;18276;45.520;11.018;2022-11-15T03:41:08;8.10;99.90
31675;DHT22;18276;45.520;11.018;2022-11-15T03:44:31;8.10;99.90
31675;DHT22;18276;45.520;11.018;2022-11-15T03:50:15;8.10;99.90
31675;DHT22;18276;45.520;11.018;2022-11-15T03:53:01;8.00;99.90
31675;DHT22;18276;45.520;11.018;2022-11-15T03:55:47;7.90;99.90
31675;DHT22;18276;45.520;11.018;2022-11-15T03:58:32;7.90;99.90
31675;DHT22;18276;45.520;11.018;2022-11-15T04:01:18;7.90;99.90
31675;DHT22;18276;45.520;11.018;2022-11-15T04:04:04;7.90;99.90
31675;DHT22;18276;45.520;11.018;2022-11-15T04:06:49;7.90;99.90
31675;DHT22;18276;45.520;11.018;2022-11-15T04:09:35;7.90;99.90
31675;DHT22;18276;45.520;11.018;2022-11-15T04:12:43;7.90;99.90
31675;DHT22;18276;45.520;11.018;2022-11-15T04:15:28;8.00;99.90
31675;DHT22;18276;45.520;11.018;2022-11-15T04:18:14;8.00;99.90
31675;DHT22;18276;45.520;11.018;2022-11-15T04:21:00;8.10;99.90
31675;DHT22;18276;45.520;11.018;2022-11-15T04:24:04;8.10;99.90
31675;DHT22;18276;45.520;11.018;2022-11-15T04:26:52;8.20;99.90
31675;DHT22;18276;45.520;11.018;2022-11-15T04:29:38;8.20;99.90
31675;DHT22;18276;45.520;11.018;2022-11-15T04:32:24;8.20;99.90
31675;DHT22;18276;45.520;11.018;2022-11-15T04:35:09;8.20;99.90
31675;DHT22;18276;45.520;11.018;2022-11-15T04:37:56;8.30;99.90
31675;DHT22;18276;45.520;11.018;2022-11-15T04:40:51;8.30;99.90
31675;DHT22;18276;45.520;11.018;2022-11-15T04:43:38;8.30;99.90
31675;DHT22;18276;45.520;11.018;2022-11-15T04:46:24;8.30;99.90
31675;DHT22;18276;45.520;11.018;2022-11-15T04:49:10;8.30;99.90
31675;DHT22;18276;45.520;11.018;2022-11-15T04:51:56;8.20;99.90
31675;DHT22;18276;45.520;11.018;2022-11-15T04:54:41;8.20;99.90
31675;DHT22;18276;45.520;11.018;2022-11-15T04:57:28;8.30;99.90
31675;DHT22;18276;45.520;11.018;2022-11-15T05:00:15;8.30;99.90
31675;DHT22;18276;45.520;11.018;2022-11-15T05:03:01;8.30;99.90
31675;DHT22;18276;45.520;11.018;2022-11-15T05:06:06;8.30;99.90
31675;DHT22;18276;45.520;11.018;2022-11-15T05:08:51;8.30;99.90
31675;DHT22;18276;45.520;11.018;2022-11-15T05:11:37;8.20;99.90
31675;DHT22;18276;45.520;11.018;2022-11-15T05:14:22;8.10;99.90
31675;DHT22;18276;45.520;11.018;2022-11-15T05:17:08;8.10;99.90
31675;DHT22;18276;45.520;11.018;2022-11-15T05:19:53;8.00;99.90
31675;DHT22;18276;45.520;11.018;2022-11-15T05:22:40;7.90;99.90
31675;DHT22;18276;45.520;11.018;2022-11-15T05:25:27;7.80;99.90
31675;DHT22;18276;45.520;11.018;2022-11-15T05:28:13;7.70;99.90
31675;DHT22;18276;45.520;11.018;2022-11-15T05:31:04;7.60;99.90
31675;DHT22;18276;45.520;11.018;2022-11-15T05:33:51;7.50;99.90
31675;DHT22;18276;45.520;11.018;2022-11-15T05:36:41;7.40;99.90
31675;DHT22;18276;45.520;11.018;2022-11-15T05:39:27;7.30;99.90
31675;DHT22;18276;45.520;11.018;2022-11-15T05:42:14;7.30;99.90
31675;DHT22;18276;45.520;11.018;2022-11-15T05:45:02;7.30;99.90
31675;DHT22;18276;45.520;11.018;2022-11-15T05:47:49;7.30;99.90
31675;DHT22;18276;45.520;11.018;2022-11-15T05:50:37;7.30;99.90
31675;DHT22;18276;45.520;11.018;2022-11-15T05:53:25;7.30;99.90
31675;DHT22;18276;45.520;11.018;2022-11-15T05:56:11;7.20;99.90
31675;DHT22;18276;45.520;11.018;2022-11-15T05:58:58;7.30;99.90
31675;DHT22;18276;45.520;11.018;2022-11-15T06:01:44;7.20;99.90
31675;DHT22;18276;45.520;11.018;2022-11-15T06:04:30;7.20;99.90
31675;DHT22;18276;45.520;11.018;2022-11-15T06:07:16;7.30;99.90
31675;DHT22;18276;45.520;11.018;2022-11-15T06:10:02;7.30;99.90
31675;DHT22;18276;45.520;11.018;2022-11-15T06:15:43;7.50;99.90
31675;DHT22;18276;45.520;11.018;2022-11-15T06:18:32;7.50;99.90
31675;DHT22;18276;45.520;11.018;2022-11-15T06:21:18;7.60;99.90
31675;DHT22;18276;45.520;11.018;2022-11-15T06:24:04;7.70;99.90
31675;DHT22;18276;45.520;11.018;2022-11-15T06:26:50;7.70;99.90
31675;DHT22;18276;45.520;11.018;2022-11-15T06:29:36;7.80;99.90
31675;DHT22;18276;45.520;11.018;2022-11-15T06:32:22;7.90;99.90
31675;DHT22;18276;45.520;11.018;2022-11-15T06:35:07;8.00;99.90
31675;DHT22;18276;45.520;11.018;2022-11-15T06:37:53;8.00;99.90
31675;DHT22;18276;45.520;11.018;2022-11-15T06:40:39;7.90;99.90
31675;DHT22;18276;45.520;11.018;2022-11-15T06:43:24;7.70;99.90
31675;DHT22;18276;45.520;11.018;2022-11-15T06:46:10;7.50;99.90
31675;DHT22;18276;45.520;11.018;2022-11-15T06:48:55;7.30;99.90
31675;DHT22;18276;45.520;11.018;2022-11-15T06:51:41;7.10;99.90
31675;DHT22;18276;45.520;11.018;2022-11-15T06:54:26;7.00;99.90
31675;DHT22;18276;45.520;11.018;2022-11-15T06:57:12;6.80;99.90
31675;DHT22;18276;45.520;11.018;2022-11-15T06:59:58;6.70;99.90
31675;DHT22;18276;45.520;11.018;2022-11-15T07:02:44;6.70;99.90
31675;DHT22;18276;45.520;11.018;2022-11-15T07:05:29;6.90;99.90
31675;DHT22;18276;45.520;11.018;2022-11-15T07:08:15;7.00;99.90
31675;DHT22;18276;45.520;11.018;2022-11-15T07:11:02;7.20;99.90
31675;DHT22;18276;45.520;11.018;2022-11-15T07:13:48;7.40;99.90
31675;DHT22;18276;45.520;11.018;2022-11-15T07:16:33;7.60;99.90
31675;DHT22;18276;45.520;11.018;2022-11-15T07:19:19;7.80;99.90
31675;DHT22;18276;45.520;11.018;2022-11-15T07:22:04;8.00;99.90
31675;DHT22;18276;45.520;11.018;2022-11-15T07:24:50;8.20;99.90
31675;DHT22;18276;45.520;11.018;2022-11-15T07:27:36;8.40;99.90
31675;DHT22;18276;45.520;11.018;2022-11-15T07:30:22;8.50;99.90
31675;DHT22;18276;45.520;11.018;2022-11-15T07:33:07;8.60;99.90
31675;DHT22;18276;45.520;11.018;2022-11-15T07:35:53;8.60;99.90
31675;DHT22;18276;45.520;11.018;2022-11-15T07:38:39;8.70;99.90
31675;DHT22;18276;45.520;11.018;2022-11-15T07:41:28;8.80;99.90
31675;DHT22;18276;45.520;11.018;2022-11-15T07:44:14;8.80;99.90
31675;DHT22;18276;45.520;11.018;2022-11-15T07:46:59;8.90;99.90
31675;DHT22;18276;45.520;11.018;2022-11-15T07:49:45;9.00;99.90
31675;DHT22;18276;45.520;11.018;2022-11-15T07:52:31;9.00;99.90
31675;DHT22;18276;45.520;11.018;2022-11-15T07:55:16;9.10;99.90
31675;DHT22;18276;45.520;11.018;2022-11-15T07:58:03;9.20;99.90
31675;DHT22;18276;45.520;11.018;2022-11-15T08:00:50;9.30;99.90
31675;DHT22;18276;45.520;11.018;2022-11-15T08:03:36;9.40;99.90
31675;DHT22;18276;45.520;11.018;2022-11-15T08:06:22;9.50;99.90
31675;DHT22;18276;45.520;11.018;2022-11-15T08:09:07;9.60;99.90
31675;DHT22;18276;45.520;11.018;2022-11-15T08:11:53;9.70;99.90
31675;DHT22;18276;45.520;11.018;2022-11-15T08:14:38;9.80;99.90
31675;DHT22;18276;45.520;11.018;2022-11-15T08:17:24;10.00;99.90
31675;DHT22;18276;45.520;11.018;2022-11-15T08:20:10;10.10;99.90
31675;DHT22;18276;45.520;11.018;2022-11-15T08:22:57;10.20;99.90
31675;DHT22;18276;45.520;11.018;2022-11-15T08:25:42;10.30;99.90
31675;DHT22;18276;45.520;11.018;2022-11-15T08:28:27;10.50;99.90
31675;DHT22;18276;45.520;11.018;2022-11-15T08:31:18;10.60;99.90
31675;DHT22;18276;45.520;11.018;2022-11-15T08:34:04;10.70;99.90
31675;DHT22;18276;45.520;11.018;2022-11-15T08:36:49;10.90;99.70
31675;DHT22;18276;45.520;11.018;2022-11-15T08:39:35;11.10;99.30
31675;DHT22;18276;45.520;11.018;2022-11-15T08:42:21;11.30;99.00
31675;DHT22;18276;45.520;11.018;2022-11-15T08:45:07;11.50;98.50
31675;DHT22;18276;45.520;11.018;2022-11-15T08:47:53;11.50;97.50
31675;DHT22;18276;45.520;11.018;2022-11-15T08:50:39;11.30;96.80
31675;DHT22;18276;45.520;11.018;2022-11-15T08:53:24;11.00;97.00
31675;DHT22;18276;45.520;11.018;2022-11-15T08:56:12;10.70;97.70
31675;DHT22;18276;45.520;11.018;2022-11-15T08:58:57;10.40;98.50
31675;DHT22;18276;45.520;11.018;2022-11-15T09:01:43;10.20;99.10
31675;DHT22;18276;45.520;11.018;2022-11-15T09:04:29;10.10;99.80
31675;DHT22;18276;45.520;11.018;2022-11-15T09:07:15;9.80;99.90
31675;DHT22;18276;45.520;11.018;2022-11-15T09:10:00;9.70;99.90
31675;DHT22;18276;45.520;11.018;2022-11-15T09:12:46;9.70;99.90
31675;DHT22;18276;45.520;11.018;2022-11-15T09:15:33;9.80;99.90
31675;DHT22;18276;45.520;11.018;2022-11-15T09:18:19;10.00;99.90
31675;DHT22;18276;45.520;11.018;2022-11-15T09:21:07;10.20;99.90
31675;DHT22;18276;45.520;11.018;2022-11-15T09:23:53;10.50;99.90
31675;DHT22;18276;45.520;11.018;2022-11-15T09:26:39;10.50;99.90
31675;DHT22;18276;45.520;11.018;2022-11-15T09:29:25;10.40;99.90
31675;DHT22;18276;45.520;11.018;2022-11-15T09:32:10;10.30;99.90
31675;DHT22;18276;45.520;11.018;2022-11-15T09:34:56;10.30;99.90
31675;DHT22;18276;45.520;11.018;2022-11-15T09:37:43;10.40;99.90
31675;DHT22;18276;45.520;11.018;2022-11-15T09:40:31;10.50;99.90
31675;DHT22;18276;45.520;11.018;2022-11-15T09:49:59;10.50;99.90
31675;DHT22;18276;45.520;11.018;2022-11-15T09:52:34;10.50;99.90
31675;DHT22;18276;45.520;11.018;2022-11-15T09:55:02;10.50;99.90
31675;DHT22;18276;45.520;11.018;2022-11-15T10:00:19;10.70;99.90
31675;DHT22;18276;45.520;11.018;2022-11-15T10:05:44;10.90;99.90
31675;DHT22;18276;45.520;11.018;2022-11-15T10:08:33;11.00;99.90
31675;DHT22;18276;45.520;11.018;2022-11-15T10:11:09;11.10;99.90
31675;DHT22;18276;45.520;11.018;2022-11-15T10:14:01;11.30;99.90
31675;DHT22;18276;45.520;11.018;2022-11-15T10:27:53;11.30;99.70
31675;DHT22;18276;45.520;11.018;2022-11-15T10:30:21;11.30;99.70
31675;DHT22;18276;45.520;11.018;2022-11-15T10:32:49;11.40;99.60
31675;DHT22;18276;45.520;11.018;2022-11-15T10:35:28;11.40;99.40
31675;DHT22;18276;45.520;11.018;2022-11-15T10:38:14;11.50;99.40
31675;DHT22;18276;45.520;11.018;2022-11-15T10:40:41;11.50;99.20
31675;DHT22;18276;45.520;11.018;2022-11-15T10:45:37;11.60;98.60
31675;DHT22;18276;45.520;11.018;2022-11-15T10:50:43;11.50;97.60
31675;DHT22;18276;45.520;11.018;2022-11-15T10:53:35;11.50;97.40
31675;DHT22;18276;45.520;11.018;2022-11-15T10:56:11;11.40;97.30
31675;DHT22;18276;45.520;11.018;2022-11-15T10:58:39;11.40;97.40
31675;DHT22;18276;45.520;11.018;2022-11-15T11:01:15;11.40;97.40
31675;DHT22;18276;45.520;11.018;2022-11-15T11:03:44;11.50;97.40
31675;DHT22;18276;45.520;11.018;2022-11-15T11:06:17;11.50;97.50
31675;DHT22;18276;45.520;11.018;2022-11-15T11:08:59;11.60;97.70
31675;DHT22;18276;45.520;11.018;2022-11-15T11:11:48;11.70;97.90
31675;DHT22;18276;45.520;11.018;2022-11-15T11:14:26;11.80;98.00
31675;DHT22;18276;45.520;11.018;2022-11-15T11:17:30;11.80;98.00
31675;DHT22;18276;45.520;11.018;2022-11-15T11:25:38;11.90;98.30
31675;DHT22;18276;45.520;11.018;2022-11-15T11:33:55;12.10;98.60
31675;DHT22;18276;45.520;11.018;2022-11-15T11:39:29;12.20;98.70
31675;DHT22;18276;45.520;11.018;2022-11-15T11:48:13;12.30;98.80
31675;DHT22;18276;45.520;11.018;2022-11-15T11:50:42;12.30;98.90
31675;DHT22;18276;45.520;11.018;2022-11-15T11:53:32;12.20;99.20
31675;DHT22;18276;45.520;11.018;2022-11-15T11:56:19;12.20;99.30
31675;DHT22;18276;45.520;11.018;2022-11-15T11:58:51;12.10;99.30
31675;DHT22;18276;45.520;11.018;2022-11-15T12:01:23;12.00;99.60
31675;DHT22;18276;45.520;11.018;2022-11-15T12:03:57;11.90;99.90
31675;DHT22;18276;45.520;11.018;2022-11-15T12:07:11;11.80;99.90
31675;DHT22;18276;45.520;11.018;2022-11-15T12:10:33;11.80;99.90
31675;DHT22;18276;45.520;11.018;2022-11-15T12:13:07;11.70;99.90
31675;DHT22;18276;45.520;11.018;2022-11-15T12:15:43;11.70;99.90
31675;DHT22;18276;45.520;11.018;2022-11-15T12:18:14;11.70;99.90
31675;DHT22;18276;45.520;11.018;2022-11-15T12:20:57;11.60;99.90
31675;DHT22;18276;45.520;11.018;2022-11-15T12:23:29;11.70;99.90
31675;DHT22;18276;45.520;11.018;2022-11-15T12:29:03;11.90;99.90
31675;DHT22;18276;45.520;11.018;2022-11-15T12:34:04;12.00;99.90
31675;DHT22;18276;45.520;11.018;2022-11-15T12:36:54;12.10;99.90
31675;DHT22;18276;45.520;11.018;2022-11-15T12:42:56;12.20;99.90
31675;DHT22;18276;45.520;11.018;2022-11-15T12:50:56;12.30;99.90
31675;DHT22;18276;45.520;11.018;2022-11-15T12:58:57;12.40;99.90
31675;DHT22;18276;45.520;11.018;2022-11-15T13:06:51;12.40;99.90
31675;DHT22;18276;45.520;11.018;2022-11-15T13:14:54;12.20;99.90
31675;DHT22;18276;45.520;11.018;2022-11-15T13:17:36;12.10;99.90
31675;DHT22;18276;45.520;11.018;2022-11-15T13:22:53;12.00;99.90
31675;DHT22;18276;45.520;11.018;2022-11-15T13:35:49;12.00;99.90
31675;DHT22;18276;45.520;11.018;2022-11-15T13:38:30;11.90;99.90
31675;DHT22;18276;45.520;11.018;2022-11-15T13:41:00;11.90;99.90
31675;DHT22;18276;45.520;11.018;2022-11-15T13:43:36;11.90;99.90
31675;DHT22;18276;45.520;11.018;2022-11-15T13:48:46;11.90;99.90
31675;DHT22;18276;45.520;11.018;2022-11-15T14:00:05;11.90;99.90
31675;DHT22;18276;45.520;11.018;2022-11-15T14:02:39;11.90;99.90
31675;DHT22;18276;45.520;11.018;2022-11-15T14:05:22;11.90;99.90
31675;DHT22;18276;45.520;11.018;2022-11-15T14:11:16;11.90;99.90
31675;DHT22;18276;45.520;11.018;2022-11-15T14:14:20;11.90;99.90
31675;DHT22;18276;45.520;11.018;2022-11-15T14:17:21;11.90;99.90
31675;DHT22;18276;45.520;11.018;2022-11-15T14:19:50;11.90;99.90
31675;DHT22;18276;45.520;11.018;2022-11-15T14:25:18;11.80;99.90
31675;DHT22;18276;45.520;11.018;2022-11-15T14:28:15;11.80;99.90
31675;DHT22;18276;45.520;11.018;2022-11-15T14:30:44;11.70;99.90
31675;DHT22;18276;45.520;11.018;2022-11-15T14:33:23;11.60;99.90
31675;DHT22;18276;45.520;11.018;2022-11-15T14:35:52;11.50;99.90
31675;DHT22;18276;45.520;11.018;2022-11-15T14:38:19;11.50;99.90
31675;DHT22;18276;45.520;11.018;2022-11-15T14:40:46;11.40;99.90
31675;DHT22;18276;45.520;11.018;2022-11-15T14:43:14;11.30;99.90
31675;DHT22;18276;45.520;11.018;2022-11-15T14:45:41;11.30;99.90
31675;DHT22;18276;45.520;11.018;2022-11-15T14:48:09;11.30;99.90
31675;DHT22;18276;45.520;11.018;2022-11-15T14:50:36;11.40;99.90
31675;DHT22;18276;45.520;11.018;2022-11-15T14:53:04;11.30;99.90
31675;DHT22;18276;45.520;11.018;2022-11-15T14:55:35;11.30;99.90
31675;DHT22;18276;45.520;11.018;2022-11-15T14:58:04;11.30;99.90
31675;DHT22;18276;45.520;11.018;2022-11-15T15:00:32;11.30;99.90
31675;DHT22;18276;45.520;11.018;2022-11-15T15:03:02;11.20;99.90
31675;DHT22;18276;45.520;11.018;2022-11-15T15:05:38;11.20;99.90
31675;DHT22;18276;45.520;11.018;2022-11-15T15:08:06;11.20;99.90
31675;DHT22;18276;45.520;11.018;2022-11-15T15:10:40;11.10;99.90
31675;DHT22;18276;45.520;11.018;2022-11-15T15:13:21;11.00;99.90
31675;DHT22;18276;45.520;11.018;2022-11-15T15:15:50;11.00;99.90
31675;DHT22;18276;45.520;11.018;2022-11-15T15:18:18;10.90;99.90
31675;DHT22;18276;45.520;11.018;2022-11-15T15:20:56;10.90;99.90
31675;DHT22;18276;45.520;11.018;2022-11-15T15:23:26;10.80;99.90
31675;DHT22;18276;45.520;11.018;2022-11-15T15:25:56;10.80;99.90
31675;DHT22;18276;45.520;11.018;2022-11-15T15:28:23;10.80;99.90
31675;DHT22;18276;45.520;11.018;2022-11-15T15:30:55;10.70;99.90
31675;DHT22;18276;45.520;11.018;2022-11-15T15:33:22;10.70;99.90
31675;DHT22;18276;45.520;11.018;2022-11-15T15:35:49;10.80;99.90
31675;DHT22;18276;45.520;11.018;2022-11-15T15:38:16;10.80;99.90
31675;DHT22;18276;45.520;11.018;2022-11-15T15:40:43;10.80;99.90
31675;DHT22;18276;45.520;11.018;2022-11-15T15:43:11;10.80;99.90
31675;DHT22;18276;45.520;11.018;2022-11-15T15:45:39;10.80;99.90
31675;DHT22;18276;45.520;11.018;2022-11-15T15:48:15;10.80;99.90
31675;DHT22;18276;45.520;11.018;2022-11-15T15:50:43;10.80;99.90
31675;DHT22;18276;45.520;11.018;2022-11-15T15:53:12;10.80;99.90
31675;DHT22;18276;45.520;11.018;2022-11-15T15:55:39;10.80;99.90
31675;DHT22;18276;45.520;11.018;2022-11-15T15:58:06;10.80;99.90
31675;DHT22;18276;45.520;11.018;2022-11-15T16:00:35;10.80;99.90
31675;DHT22;18276;45.520;11.018;2022-11-15T16:03:03;10.80;99.90
31675;DHT22;18276;45.520;11.018;2022-11-15T16:05:31;10.80;99.90
31675;DHT22;18276;45.520;11.018;2022-11-15T16:07:58;10.80;99.90
31675;DHT22;18276;45.520;11.018;2022-11-15T16:10:29;10.80;99.90
31675;DHT22;18276;45.520;11.018;2022-11-15T16:12:57;10.80;99.90
31675;DHT22;18276;45.520;11.018;2022-11-15T16:15:27;10.80;99.90
31675;DHT22;18276;45.520;11.018;2022-11-15T16:17:57;10.80;99.90
31675;DHT22;18276;45.520;11.018;2022-11-15T16:23:08;10.90;99.90
31675;DHT22;18276;45.520;11.018;2022-11-15T16:25:44;10.90;99.90
31675;DHT22;18276;45.520;11.018;2022-11-15T16:28:32;10.90;99.90
31675;DHT22;18276;45.520;11.018;2022-11-15T16:31:04;10.90;99.90
31675;DHT22;18276;45.520;11.018;2022-11-15T16:33:31;10.90;99.90
31675;DHT22;18276;45.520;11.018;2022-11-15T16:36:00;10.90;99.90
31675;DHT22;18276;45.520;11.018;2022-11-15T16:38:27;10.90;99.90
31675;DHT22;18276;45.520;11.018;2022-11-15T16:40:55;10.80;99.90
31675;DHT22;18276;45.520;11.018;2022-11-15T16:43:22;10.80;99.90
31675;DHT22;18276;45.520;11.018;2022-11-15T16:45:50;10.80;99.90
31675;DHT22;18276;45.520;11.018;2022-11-15T16:48:23;10.80;99.90
31675;DHT22;18276;45.520;11.018;2022-11-15T16:50:55;10.80;99.90
31675;DHT22;18276;45.520;11.018;2022-11-15T16:53:24;10.70;99.90
31675;DHT22;18276;45.520;11.018;2022-11-15T16:55:53;10.70;99.90
31675;DHT22;18276;45.520;11.018;2022-11-15T16:58:20;10.70;99.90
31675;DHT22;18276;45.520;11.018;2022-11-15T17:00:52;10.70;99.90
31675;DHT22;18276;45.520;11.018;2022-11-15T17:03:22;10.70;99.90
31675;DHT22;18276;45.520;11.018;2022-11-15T17:05:50;10.70;99.90
31675;DHT22;18276;45.520;11.018;2022-11-15T17:08:18;10.70;99.90
31675;DHT22;18276;45.520;11.018;2022-11-15T17:10:48;10.60;99.90
31675;DHT22;18276;45.520;11.018;2022-11-15T17:13:15;10.70;99.90
31675;DHT22;18276;45.520;11.018;2022-11-15T17:15:43;10.60;99.90
31675;DHT22;18276;45.520;11.018;2022-11-15T17:18:11;10.70;99.90
31675;DHT22;18276;45.520;11.018;2022-11-15T17:20:41;10.70;99.90
31675;DHT22;18276;45.520;11.018;2022-11-15T17:23:13;10.70;99.90
31675;DHT22;18276;45.520;11.018;2022-11-15T17:25:41;10.70;99.90
31675;DHT22;18276;45.520;11.018;2022-11-15T17:28:09;10.60;99.90
31675;DHT22;18276;45.520;11.018;2022-11-15T17:30:39;10.60;99.90
31675;DHT22;18276;45.520;11.018;2022-11-15T17:33:06;10.60;99.90
31675;DHT22;18276;45.520;11.018;2022-11-15T17:35:37;10.60;99.90
31675;DHT22;18276;45.520;11.018;2022-11-15T17:38:08;10.60;99.90
31675;DHT22;18276;45.520;11.018;2022-11-15T17:40:35;10.60;99.90
31675;DHT22;18276;45.520;11.018;2022-11-15T17:43:05;10.60;99.90
31675;DHT22;18276;45.520;11.018;2022-11-15T17:45:32;10.60;99.90
31675;DHT22;18276;45.520;11.018;2022-11-15T17:48:00;10.60;99.90
31675;DHT22;18276;45.520;11.018;2022-11-15T17:50:27;10.60;99.90
31675;DHT22;18276;45.520;11.018;2022-11-15T17:52:54;10.60;99.90
31675;DHT22;18276;45.520;11.018;2022-11-15T17:55:22;10.60;99.90
31675;DHT22;18276;45.520;11.018;2022-11-15T17:57:49;10.60;99.90
31675;DHT22;18276;45.520;11.018;2022-11-15T18:00:16;10.60;99.90
31675;DHT22;18276;45.520;11.018;2022-11-15T18:02:46;10.60;99.90
31675;DHT22;18276;45.520;11.018;2022-11-15T18:05:13;10.50;99.90
31675;DHT22;18276;45.520;11.018;2022-11-15T18:07:40;10.50;99.90
31675;DHT22;18276;45.520;11.018;2022-11-15T18:10:07;10.40;99.90
31675;DHT22;18276;45.520;11.018;2022-11-15T18:12:36;10.40;99.90
31675;DHT22;18276;45.520;11.018;2022-11-15T18:15:03;10.40;99.90
31675;DHT22;18276;45.520;11.018;2022-11-15T18:17:30;10.40;99.90
31675;DHT22;18276;45.520;11.018;2022-11-15T18:20:01;10.40;99.90
31675;DHT22;18276;45.520;11.018;2022-11-15T18:22:28;10.40;99.90
31675;DHT22;18276;45.520;11.018;2022-11-15T18:24:55;10.40;99.90
31675;DHT22;18276;45.520;11.018;2022-11-15T18:27:22;10.40;99.90
31675;DHT22;18276;45.520;11.018;2022-11-15T18:29:49;10.40;99.90
31675;DHT22;18276;45.520;11.018;2022-11-15T18:32:16;10.40;99.90
31675;DHT22;18276;45.520;11.018;2022-11-15T18:34:43;10.40;99.90
31675;DHT22;18276;45.520;11.018;2022-11-15T18:37:10;10.40;99.90
31675;DHT22;18276;45.520;11.018;2022-11-15T18:39:37;10.40;99.90
31675;DHT22;18276;45.520;11.018;2022-11-15T18:42:04;10.40;99.90
31675;DHT22;18276;45.520;11.018;2022-11-15T18:44:32;10.40;99.90
31675;DHT22;18276;45.520;11.018;2022-11-15T18:47:01;10.50;99.90
31675;DHT22;18276;45.520;11.018;2022-11-15T18:49:28;10.50;99.90
31675;DHT22;18276;45.520;11.018;2022-11-15T18:51:55;10.50;99.90
31675;DHT22;18276;45.520;11.018;2022-11-15T18:54:22;10.50;99.90
31675;DHT22;18276;45.520;11.018;2022-11-15T18:56:56;10.40;99.90
31675;DHT22;18276;45.520;11.018;2022-11-15T18:59:24;10.40;99.90
31675;DHT22;18276;45.520;11.018;2022-11-15T19:01:53;10.40;99.90
31675;DHT22;18276;45.520;11.018;2022-11-15T19:04:22;10.40;99.90
31675;DHT22;18276;45.520;11.018;2022-11-15T19:06:49;10.40;99.90
31675;DHT22;18276;45.520;11.018;2022-11-15T19:09:17;10.40;99.90
31675;DHT22;18276;45.520;11.018;2022-11-15T19:11:46;10.40;99.90
31675;DHT22;18276;45.520;11.018;2022-11-15T19:14:15;10.50;99.90
31675;DHT22;18276;45.520;11.018;2022-11-15T19:16:45;10.50;99.90
31675;DHT22;18276;45.520;11.018;2022-11-15T19:19:18;10.50;99.90